CheckWX is a tool to help pilots better visualize weather data.  It is not intended as a substitute for an official pre-flight weather briefing.

12:23:56 UTC

KLOR METAR
Lowe AHP (Fort Rucker) Heliport
Fort Rucker Ozark, Alabama, USA
Current

26 mins ago

KLOR 271158Z AUTO 00000KT 10SM FEW230 21/20 A3015 RMK AO2 SLP191 T02130196 10231 20186 53004
Observed
Jun-27 @ 11:58 UTC
Visibility
10 SM
Flight Rules
VFR
Cloud Levels
  • Few at 23,000' AGL
Temperature
21°C / 70°F
Dewpoint
20°C / 68°F
Humidity
94%
Altimeter
30.15" Hg
Pressure
1021.02 hPa
Previous

1 hour ago

KLOR 271058Z AUTO 00000KT 10SM CLR 19/19 A3015 RMK AO2 SLP191 T01920185
Observed
Jun-27 @ 10:58 UTC
Visibility
10 SM
Flight Rules
VFR
Cloud Levels
  • Clear skies
Temperature
19°C / 66°F
Dewpoint
19°C / 66°F
Humidity
100%
Altimeter
30.15" Hg
Pressure
1021.02 hPa
Previous

2 hours ago

KLOR 270958Z AUTO 00000KT 10SM CLR 20/18 A3014 RMK AO2 SLP187 T01950183
Observed
Jun-27 @ 09:58 UTC
Visibility
10 SM
Flight Rules
VFR
Cloud Levels
  • Clear skies
Temperature
20°C / 68°F
Dewpoint
18°C / 64°F
Humidity
88%
Altimeter
30.14" Hg
Pressure
1020.62 hPa